Time;durP1;ratioP1;P1;durP2;ratioP2;P2;SDS_P1;SDS_P2;PMS_P1;PMS_P2;Temp;Humidity;BMP_temperature;BMP_pressure;BME280_temperature;BME280_humidity;BME280_pressure;Samples;Min_cycle;Max_cycle;Signal;HPM_P1;HPM_P2
2019/12/29 00:00:29;;;;;;;28.1;19.7;;;;;;;0.63;72.33691;981.9313;;;;
2019/12/29 00:02:55;;;;;;;29.7;19.7;;;;;;;0.6;72.53906;981.9313;;;;
2019/12/29 00:05:20;;;;;;;28.7;19.5;;;;;;;0.62;72.56445;981.9103;;;;
2019/12/29 00:07:47;;;;;;;28.2;19.4;;;;;;;0.54;72.91699;981.8691;;;;
2019/12/29 00:10:12;;;;;;;26;19.3;;;;;;;0.53;72.77832;981.8418;;;;
2019/12/29 00:12:37;;;;;;;24;18.3;;;;;;;0.48;73.07813;981.8097;;;;
2019/12/29 00:15:02;;;;;;;24.8;18;;;;;;;0.55;72.70117;981.7668;;;;
2019/12/29 00:17:27;;;;;;;25.1;18;;;;;;;0.52;72.98145;981.7747;;;;
2019/12/29 00:19:52;;;;;;;26.5;18;;;;;;;0.47;72.87109;981.808;;;;
2019/12/29 00:22:17;;;;;;;25;18.3;;;;;;;0.51;73.02734;981.7761;;;;
2019/12/29 00:24:42;;;;;;;24.3;17.9;;;;;;;0.44;73.05957;981.7639;;;;
2019/12/29 00:27:07;;;;;;;24.7;18.3;;;;;;;0.49;72.9209;981.7464;;;;
2019/12/29 00:32:02;;;;;;;24.6;17.6;;;;;;;0.5;72.46289;981.7231;;;;
2019/12/29 00:34:23;;;;;;;24.8;18.4;;;;;;;0.41;72.42676;981.7046;;;;
2019/12/29 00:36:49;;;;;;;23.4;17.7;;;;;;;0.41;72.6416;981.7166;;;;
2019/12/29 00:39:14;;;;;;;22.4;17.2;;;;;;;0.37;72.625;981.6292;;;;
2019/12/29 00:44:02;;;;;;;24.2;18.3;;;;;;;0.37;72.04199;981.6195;;;;
2019/12/29 00:46:27;;;;;;;24.2;17.9;;;;;;;0.41;72.40234;981.6253;;;;
2019/12/29 00:48:52;;;;;;;22.6;16.7;;;;;;;0.41;72.73438;981.675;;;;
2019/12/29 00:51:17;;;;;;;20.3;16.1;;;;;;;0.35;72.76953;981.6672;;;;
2019/12/29 00:53:42;;;;;;;19.9;15.9;;;;;;;0.26;73.17773;981.7189;;;;
2019/12/29 00:56:07;;;;;;;21.6;16.5;;;;;;;0.25;72.83301;981.7548;;;;
2019/12/29 00:58:32;;;;;;;21.7;16.2;;;;;;;0.2;72.84863;981.8546;;;;
2019/12/29 01:00:57;;;;;;;21;16.7;;;;;;;0.11;73.2793;981.9052;;;;
2019/12/29 01:03:22;;;;;;;20.3;16.5;;;;;;;0.09;73.55859;981.9219;;;;
2019/12/29 01:05:48;;;;;;;18.9;15.8;;;;;;;0.11;73.44727;981.863;;;;
2019/12/29 01:08:13;;;;;;;19.9;16.2;;;;;;;0.13;72.61914;981.8094;;;;
2019/12/29 01:10:38;;;;;;;20.2;16.4;;;;;;;0.13;72.38965;981.8382;;;;
2019/12/29 01:13:04;;;;;;;20.4;16.3;;;;;;;0.07;72.52637;981.8146;;;;
2019/12/29 01:15:28;;;;;;;22.9;17.3;;;;;;;0.07;72.57422;981.7227;;;;
2019/12/29 01:17:53;;;;;;;21;17.2;;;;;;;-0.05;72.82715;981.7762;;;;
2019/12/29 01:20:18;;;;;;;20.8;17.2;;;;;;;-0.04;73.25195;981.8995;;;;
2019/12/29 01:22:43;;;;;;;20.9;17.3;;;;;;;-0.01;73.2002;981.9791;;;;
2019/12/29 01:25:08;;;;;;;19.6;16.5;;;;;;;-0.01;73.59961;982.0469;;;;
2019/12/29 01:27:34;;;;;;;19.1;15.9;;;;;;;-0.03;73.94043;981.9403;;;;
2019/12/29 01:29:59;;;;;;;18.8;16;;;;;;;-0.02;74.06641;981.8796;;;;
2019/12/29 01:32:24;;;;;;;19.9;15.8;;;;;;;-0.04;73.32031;981.7594;;;;
2019/12/29 01:34:49;;;;;;;18.3;16.1;;;;;;;-0.07;73.88672;981.8056;;;;
2019/12/29 01:37:14;;;;;;;19.9;15.9;;;;;;;-0.09;74.11133;981.84;;;;
2019/12/29 01:39:39;;;;;;;17;15;;;;;;;-0.13;74.26367;981.9036;;;;
2019/12/29 01:42:04;;;;;;;16.7;14.7;;;;;;;-0.16;74.69434;981.9554;;;;
2019/12/29 01:44:29;;;;;;;17.1;14.9;;;;;;;-0.12;74.51758;981.967;;;;
2019/12/29 01:46:54;;;;;;;16.4;14.3;;;;;;;-0.05;73.95898;981.9539;;;;
2019/12/29 01:49:19;;;;;;;17.2;14.8;;;;;;;-0.04;73.65137;981.8732;;;;
2019/12/29 01:51:44;;;;;;;17.1;14.7;;;;;;;-0.12;73.3291;981.8526;;;;
2019/12/29 01:54:09;;;;;;;16.9;14.9;;;;;;;-0.17;73.52539;981.8714;;;;
2019/12/29 01:56:34;;;;;;;20.2;16.1;;;;;;;-0.22;73.71289;981.8605;;;;
2019/12/29 01:59:00;;;;;;;18.9;15.8;;;;;;;-0.27;73.46289;981.7916;;;;
2019/12/29 02:01:31;;;;;;;17.8;15;;;;;;;-0.26;73.61328;981.7891;;;;
2019/12/29 02:03:50;;;;;;;17.8;15.2;;;;;;;-0.12;73.53516;981.7405;;;;
2019/12/29 02:06:15;;;;;;;17.8;15;;;;;;;-0.19;72.8252;981.745;;;;
2019/12/29 02:08:40;;;;;;;18.7;15.2;;;;;;;-0.23;73.06934;981.728;;;;
2019/12/29 02:11:05;;;;;;;17.4;14.9;;;;;;;-0.28;73.28906;981.713;;;;
2019/12/29 02:13:30;;;;;;;16.2;14.2;;;;;;;-0.27;73.23438;981.6572;;;;
2019/12/29 02:15:56;;;;;;;17.2;14.7;;;;;;;-0.35;72.86719;981.5623;;;;
2019/12/29 02:18:21;;;;;;;16.4;14.6;;;;;;;-0.44;73.90039;981.5262;;;;
2019/12/29 02:20:46;;;;;;;15.8;13.8;;;;;;;-0.37;73.67285;981.4883;;;;
2019/12/29 02:23:11;;;;;;;16.9;14.7;;;;;;;-0.43;73.82227;981.4113;;;;
2019/12/29 02:25:36;;;;;;;16.9;13.7;;;;;;;-0.28;73.4502;981.39;;;;
2019/12/29 02:28:01;;;;;;;14.9;13.2;;;;;;;-0.25;72.97461;981.2845;;;;
2019/12/29 02:30:27;;;;;;;15.3;13.5;;;;;;;-0.38;73.52441;981.2023;;;;
2019/12/29 02:32:54;;;;;;;15.8;14.1;;;;;;;-0.58;74.44727;981.2215;;;;
2019/12/29 02:35:17;;;;;;;16.1;14.4;;;;;;;-0.55;74.4209;981.1578;;;;
2019/12/29 02:37:42;;;;;;;15.4;13.4;;;;;;;-0.62;74.84082;981.1467;;;;
2019/12/29 02:40:07;;;;;;;15.8;14.1;;;;;;;-0.58;74.6084;981.0945;;;;
2019/12/29 02:42:32;;;;;;;15.4;13.7;;;;;;;-0.52;74.44629;981.1219;;;;
2019/12/29 02:44:58;;;;;;;15.2;13.6;;;;;;;-0.55;74.61523;981.1339;;;;
2019/12/29 02:47:23;;;;;;;14.6;13.1;;;;;;;-0.61;74.80762;981.087;;;;
2019/12/29 02:49:48;;;;;;;15.9;14.2;;;;;;;-0.49;74.30566;981.1053;;;;
2019/12/29 02:52:13;;;;;;;16.3;14.6;;;;;;;-0.71;74.9043;981.13;;;;
2019/12/29 02:54:38;;;;;;;15.6;13.9;;;;;;;-0.6;74.4668;981.1252;;;;
2019/12/29 02:57:03;;;;;;;16.7;14.4;;;;;;;-0.62;74.33789;981.0861;;;;
2019/12/29 02:59:29;;;;;;;15.2;13.4;;;;;;;-0.56;74.28027;981.0536;;;;
2019/12/29 03:01:54;;;;;;;15.6;14;;;;;;;-0.47;74.04492;981.1161;;;;
2019/12/29 03:04:19;;;;;;;15.5;13.9;;;;;;;-0.44;73.68359;981.0561;;;;
2019/12/29 03:06:44;;;;;;;15.8;14.1;;;;;;;-0.48;73.75781;980.9408;;;;
2019/12/29 03:09:09;;;;;;;17.8;15.4;;;;;;;-0.52;73.85449;980.9286;;;;
2019/12/29 03:11:34;;;;;;;16.2;14.5;;;;;;;-0.55;74.07617;980.8915;;;;
2019/12/29 03:13:59;;;;;;;16.9;15.1;;;;;;;-0.66;74.53711;980.9124;;;;
2019/12/29 03:16:24;;;;;;;19;16;;;;;;;-0.85;75.18652;980.8788;;;;
2019/12/29 03:18:49;;;;;;;17;14.9;;;;;;;-0.82;75.02246;980.8488;;;;
2019/12/29 03:21:15;;;;;;;17.9;16;;;;;;;-1.22;76.56934;980.8845;;;;
2019/12/29 03:23:40;;;;;;;17;15.3;;;;;;;-1.14;76.52734;980.9339;;;;
2019/12/29 03:26:05;;;;;;;17.6;15.2;;;;;;;-0.89;75.5791;980.9161;;;;
2019/12/29 03:28:30;;;;;;;18;15;;;;;;;-0.68;74.68262;980.9713;;;;
2019/12/29 03:30:55;;;;;;;17.9;15.1;;;;;;;-0.57;74.0166;980.9316;;;;
2019/12/29 03:33:21;;;;;;;18.8;16.3;;;;;;;-0.5;73.8916;980.9336;;;;
2019/12/29 03:35:47;;;;;;;18.4;16;;;;;;;-0.48;73.67773;980.8817;;;;
2019/12/29 03:38:11;;;;;;;18.8;16.5;;;;;;;-0.52;73.64844;980.9317;;;;
2019/12/29 03:40:36;;;;;;;18.9;16.1;;;;;;;-0.45;73.59082;980.9747;;;;
2019/12/29 03:43:01;;;;;;;19.1;16.1;;;;;;;-0.44;73.62695;981.0737;;;;
2019/12/29 03:45:26;;;;;;;17.7;15.7;;;;;;;-0.42;73.69824;981.062;;;;
2019/12/29 03:47:51;;;;;;;17.2;15.4;;;;;;;-0.42;73.72168;981.0653;;;;
2019/12/29 03:50:16;;;;;;;17.1;15.3;;;;;;;-0.45;73.47656;981.0739;;;;
2019/12/29 03:52:41;;;;;;;17.9;16;;;;;;;-0.49;73.76758;981.0662;;;;
2019/12/29 03:55:07;;;;;;;17.5;15.7;;;;;;;-0.61;74.02148;981.0759;;;;
2019/12/29 03:57:32;;;;;;;16.7;14.9;;;;;;;-0.68;74.4541;981.0927;;;;
2019/12/29 03:59:57;;;;;;;16.9;15.1;;;;;;;-0.79;75.03906;981.071;;;;
2019/12/29 04:02:26;;;;;;;17.3;14.7;;;;;;;-0.77;74.84863;981.1025;;;;
2019/12/29 04:04:51;;;;;;;15.7;14;;;;;;;-0.77;74.88281;981.1481;;;;
2019/12/29 04:07:16;;;;;;;16.1;14.4;;;;;;;-0.78;74.9834;981.0831;;;;
2019/12/29 04:09:41;;;;;;;16.6;14.9;;;;;;;-0.75;74.88574;981.029;;;;
2019/12/29 04:12:06;;;;;;;16.7;14.9;;;;;;;-0.74;74.45508;981.0053;;;;
2019/12/29 04:14:31;;;;;;;16.7;14.7;;;;;;;-0.61;73.99902;981.0312;;;;
2019/12/29 04:16:56;;;;;;;16.7;14.1;;;;;;;-0.68;74.20313;981.1222;;;;
2019/12/29 04:19:21;;;;;;;16.4;14.6;;;;;;;-0.72;73.62305;981.1237;;;;
2019/12/29 04:21:47;;;;;;;16;14.2;;;;;;;-0.65;73.45313;981.1674;;;;
2019/12/29 04:24:12;;;;;;;16.2;14;;;;;;;-0.69;72.92285;981.1505;;;;
2019/12/29 04:26:37;;;;;;;15.7;14;;;;;;;-0.75;72.92188;981.1233;;;;
2019/12/29 04:29:02;;;;;;;15.6;13.8;;;;;;;-0.74;72.87793;981.1306;;;;
2019/12/29 04:31:27;;;;;;;17.4;15.6;;;;;;;-0.88;74.17871;981.1247;;;;
2019/12/29 04:33:52;;;;;;;16.3;14.5;;;;;;;-0.9;74.8252;981.1283;;;;
2019/12/29 04:36:17;;;;;;;18.2;15.6;;;;;;;-0.92;75.33496;981.086;;;;
2019/12/29 04:38:42;;;;;;;17.4;15.1;;;;;;;-0.98;75.66797;981.0876;;;;
2019/12/29 04:41:07;;;;;;;17.8;15.8;;;;;;;-0.94;75.50098;981.1312;;;;
2019/12/29 04:43:32;;;;;;;17.7;15.8;;;;;;;-0.97;75.37109;981.127;;;;
2019/12/29 04:45:57;;;;;;;17.1;15.3;;;;;;;-0.96;74.91797;981.084;;;;
2019/12/29 04:48:23;;;;;;;16.5;14.8;;;;;;;-1.04;74.24219;981.0712;;;;
2019/12/29 04:50:47;;;;;;;17;14.7;;;;;;;-1.07;73.80273;981.0814;;;;
2019/12/29 04:53:13;;;;;;;17;15.2;;;;;;;-1.04;73.35156;981.0936;;;;
2019/12/29 04:55:38;;;;;;;16.3;14.4;;;;;;;-1.04;73.31836;981.1;;;;
2019/12/29 04:58:03;;;;;;;16.6;14.8;;;;;;;-1.05;73.00879;981.1119;;;;
2019/12/29 05:00:28;;;;;;;16.4;14.6;;;;;;;-1.03;73.01074;981.0811;;;;
2019/12/29 05:02:53;;;;;;;16.9;15;;;;;;;-1.08;72.79785;981.0229;;;;
2019/12/29 05:05:18;;;;;;;16.3;14.2;;;;;;;-1.11;72.66602;980.9525;;;;
2019/12/29 05:07:43;;;;;;;16.1;14.2;;;;;;;-1.08;72.77441;981.0294;;;;
2019/12/29 05:10:08;;;;;;;15.1;13.5;;;;;;;-1.12;72.76758;980.9938;;;;
2019/12/29 05:12:33;;;;;;;16;14;;;;;;;-1.17;73.05469;980.9056;;;;
2019/12/29 05:14:58;;;;;;;16.6;14.2;;;;;;;-1.06;72.95996;981.027;;;;
2019/12/29 05:17:26;;;;;;;16.5;14.4;;;;;;;-1.07;72.68652;980.9953;;;;
2019/12/29 05:19:48;;;;;;;16.2;14.5;;;;;;;-1.12;72.34668;981.0538;;;;
2019/12/29 05:22:14;;;;;;;15.8;14.1;;;;;;;-1.11;72.51953;981.2025;;;;
2019/12/29 05:24:39;;;;;;;17.6;15.1;;;;;;;-1.02;72.7627;981.2974;;;;
2019/12/29 05:27:04;;;;;;;16.5;14.7;;;;;;;-1.07;73.11816;981.3209;;;;
2019/12/29 05:29:29;;;;;;;17.3;15.2;;;;;;;-1.08;72.83203;981.3641;;;;
2019/12/29 05:31:54;;;;;;;16.8;15;;;;;;;-1.02;72.62402;981.383;;;;
2019/12/29 05:34:19;;;;;;;17;15.2;;;;;;;-1.05;73.1543;981.3633;;;;
2019/12/29 05:36:44;;;;;;;18;15.7;;;;;;;-1.06;72.8916;981.3864;;;;
2019/12/29 05:39:09;;;;;;;18.8;15.6;;;;;;;-1.12;72.94922;981.4217;;;;
2019/12/29 05:41:34;;;;;;;16;14.3;;;;;;;-1.07;72.08008;981.4128;;;;
2019/12/29 05:43:59;;;;;;;17.5;15;;;;;;;-1.21;73.17578;981.4464;;;;
2019/12/29 05:46:24;;;;;;;18.1;15.9;;;;;;;-1.14;73.69922;981.4497;;;;
2019/12/29 05:48:49;;;;;;;17.7;15.2;;;;;;;-1.22;74.13965;981.4289;;;;
2019/12/29 05:51:15;;;;;;;17.7;15.8;;;;;;;-1.21;73.57324;981.4722;;;;
2019/12/29 05:53:40;;;;;;;17.1;15.3;;;;;;;-1.15;73.05859;981.4958;;;;
2019/12/29 05:56:05;;;;;;;18.4;16;;;;;;;-1.19;73.1084;981.4905;;;;
2019/12/29 05:58:30;;;;;;;17.3;15.4;;;;;;;-1.21;73.15137;981.511;;;;
2019/12/29 06:00:55;;;;;;;17.2;15.1;;;;;;;-1.27;73.57324;981.5033;;;;
2019/12/29 06:03:20;;;;;;;18.3;16.2;;;;;;;-1.26;73.5752;981.5281;;;;
2019/12/29 06:05:45;;;;;;;19.9;16.9;;;;;;;-1.23;73.41016;981.5214;;;;
2019/12/29 06:08:10;;;;;;;18.5;16.5;;;;;;;-1.22;73.35449;981.5471;;;;
2019/12/29 06:10:35;;;;;;;19.8;16.4;;;;;;;-1.28;73.46973;981.6236;;;;
2019/12/29 06:13:00;;;;;;;17.3;15.4;;;;;;;-1.33;72.55957;981.6423;;;;
2019/12/29 06:15:25;;;;;;;21.2;17.1;;;;;;;-1.44;73.23535;981.6674;;;;
2019/12/29 06:17:50;;;;;;;18.9;16.3;;;;;;;-1.38;73.1543;981.6336;;;;
2019/12/29 06:20:15;;;;;;;18.2;15.3;;;;;;;-1.41;73.45801;981.5328;;;;
2019/12/29 06:22:42;;;;;;;18.7;16.3;;;;;;;-1.36;73.05664;981.5126;;;;
2019/12/29 06:25:18;;;;;;;18.2;16.1;;;;;;;-1.37;73.20313;981.5621;;;;
2019/12/29 06:27:33;;;;;;;18.8;16.8;;;;;;;-1.34;73.13965;981.5623;;;;
2019/12/29 06:29:58;;;;;;;18.2;16;;;;;;;-1.31;72.7793;981.5626;;;;
2019/12/29 06:32:23;;;;;;;18.6;16.1;;;;;;;-1.31;72.44824;981.5195;;;;
2019/12/29 06:34:48;;;;;;;20.1;16.2;;;;;;;-1.33;72.79883;981.4812;;;;
2019/12/29 06:37:14;;;;;;;18.5;16;;;;;;;-1.36;73.4668;981.433;;;;
2019/12/29 06:39:39;;;;;;;18.3;16.2;;;;;;;-1.36;73.44434;981.479;;;;
2019/12/29 06:42:04;;;;;;;18.2;15.6;;;;;;;-1.39;74.00977;981.5193;;;;
2019/12/29 06:46:26;;;;;;;18.6;16.3;;;;;;;-1.65;75.53418;981.462;;;;
2019/12/29 06:48:51;;;;;;;17.1;15.3;;;;;;;-1.65;75.81738;981.3997;;;;
2019/12/29 06:51:16;;;;;;;20.5;16;;;;;;;-1.52;75.33984;981.4398;;;;
2019/12/29 06:53:41;;;;;;;17.3;14.7;;;;;;;-1.54;75.33691;981.4297;;;;
2019/12/29 06:56:06;;;;;;;16.7;14.9;;;;;;;-1.45;74.61426;981.4311;;;;
2019/12/29 06:58:31;;;;;;;17;15;;;;;;;-1.3;73.95605;981.4416;;;;
2019/12/29 07:00:56;;;;;;;17.3;14.9;;;;;;;-1.19;73.50781;981.4986;;;;
2019/12/29 07:03:21;;;;;;;17.2;15.3;;;;;;;-1.17;73.39844;981.5499;;;;
2019/12/29 07:05:47;;;;;;;19.2;15.2;;;;;;;-1.22;73.0791;981.5486;;;;
2019/12/29 07:08:12;;;;;;;17.4;15.5;;;;;;;-1.27;73.07324;981.5751;;;;
2019/12/29 07:10:37;;;;;;;16;14.2;;;;;;;-1.27;73.31152;981.6414;;;;
2019/12/29 07:13:02;;;;;;;15.9;14.2;;;;;;;-1.26;73.31445;981.5953;;;;
2019/12/29 07:15:29;;;;;;;16.9;14.9;;;;;;;-1.21;73.10547;981.6079;;;;
2019/12/29 07:17:53;;;;;;;17.8;15.5;;;;;;;-1.14;72.87793;981.6117;;;;
2019/12/29 07:20:18;;;;;;;18.7;16.1;;;;;;;-1.16;72.94336;981.7033;;;;
2019/12/29 07:22:42;;;;;;;18.8;16.8;;;;;;;-1.09;72.86426;981.6369;;;;
2019/12/29 07:25:07;;;;;;;19;17;;;;;;;-1.08;72.79785;981.6642;;;;
2019/12/29 07:27:33;;;;;;;18.8;16.8;;;;;;;-1.07;73.10742;981.6541;;;;
2019/12/29 07:29:58;;;;;;;18.7;16.4;;;;;;;-0.92;72.64258;981.6195;;;;
2019/12/29 07:32:23;;;;;;;22;19.3;;;;;;;-1.04;73.28418;981.6638;;;;
2019/12/29 07:34:48;;;;;;;22.2;19.5;;;;;;;-0.95;72.81934;981.6288;;;;
2019/12/29 07:37:13;;;;;;;20;17.8;;;;;;;-0.92;72.7793;981.6125;;;;
2019/12/29 07:39:38;;;;;;;20.7;18.1;;;;;;;-1.09;73.75391;981.6121;;;;
2019/12/29 07:42:03;;;;;;;21.8;18.2;;;;;;;-1.11;73.7627;981.5698;;;;
2019/12/29 07:44:28;;;;;;;19.6;16.7;;;;;;;-0.89;72.97754;981.4808;;;;
2019/12/29 07:46:53;;;;;;;18.7;16.4;;;;;;;-0.97;73.52344;981.519;;;;
2019/12/29 07:49:18;;;;;;;18.2;16.1;;;;;;;-0.9;73.22852;981.5358;;;;
2019/12/29 07:51:44;;;;;;;19.4;17.3;;;;;;;-0.84;73.1582;981.5325;;;;
2019/12/29 07:54:09;;;;;;;21.9;17.9;;;;;;;-0.68;72.85449;981.5005;;;;
2019/12/29 07:56:34;;;;;;;18.2;16.2;;;;;;;1.31;66.31641;981.4419;;;;
2019/12/29 07:58:59;;;;;;;18.3;16.2;;;;;;;1.3;65.06543;981.4634;;;;
2019/12/29 08:01:24;;;;;;;18.6;15.8;;;;;;;0.83;66.28809;981.4691;;;;
2019/12/29 08:03:49;;;;;;;17.5;15.7;;;;;;;0.6;67.39551;981.5164;;;;
2019/12/29 08:06:14;;;;;;;19.8;15.8;;;;;;;1.11;65.78223;981.5666;;;;
2019/12/29 08:08:39;;;;;;;19.5;16.9;;;;;;;1.39;64.65527;981.6071;;;;
2019/12/29 08:11:04;;;;;;;18.3;15.9;;;;;;;1.53;64.51465;981.5405;;;;
2019/12/29 08:13:29;;;;;;;17.9;15.2;;;;;;;2.02;62.46484;981.5522;;;;
2019/12/29 08:15:55;;;;;;;17.2;15.2;;;;;;;1.7;63.66797;981.5236;;;;
2019/12/29 08:18:20;;;;;;;17.2;15.4;;;;;;;2.05;63.2168;981.5104;;;;
2019/12/29 08:20:45;;;;;;;16.4;14.7;;;;;;;3.06;59.77344;981.5144;;;;
2019/12/29 08:23:10;;;;;;;17;14.5;;;;;;;2.36;60.7793;981.5642;;;;
2019/12/29 08:25:35;;;;;;;15.3;13.7;;;;;;;2.4;61.56641;981.5586;;;;
2019/12/29 08:28:00;;;;;;;17.1;15.3;;;;;;;2.28;62.20508;981.5613;;;;
2019/12/29 08:30:25;;;;;;;16.7;14.9;;;;;;;2.47;61.66797;981.5181;;;;
2019/12/29 08:32:50;;;;;;;17.6;15.4;;;;;;;1.95;62.89063;981.546;;;;
2019/12/29 08:35:16;;;;;;;18.1;15.4;;;;;;;3.46;58.81445;981.5538;;;;
2019/12/29 08:37:40;;;;;;;16.6;14.4;;;;;;;5.42;52.86719;981.5333;;;;
2019/12/29 08:40:05;;;;;;;16.5;14.5;;;;;;;5.6;51.3252;981.6006;;;;
2019/12/29 08:42:30;;;;;;;18.2;13.9;;;;;;;4.06;55.7002;981.5792;;;;
2019/12/29 08:44:55;;;;;;;16.2;14.5;;;;;;;2.91;59.68262;981.5731;;;;
2019/12/29 08:47:20;;;;;;;16.9;14.6;;;;;;;2.54;62.04785;981.5885;;;;
2019/12/29 08:49:46;;;;;;;16.8;14.7;;;;;;;2.67;62.35352;981.5849;;;;
2019/12/29 08:52:11;;;;;;;16.6;14.8;;;;;;;2.74;62.54785;981.6553;;;;
2019/12/29 08:54:36;;;;;;;16.9;15.1;;;;;;;2.67;62.06543;981.7761;;;;
2019/12/29 08:57:01;;;;;;;18.3;15;;;;;;;2.05;64.37598;981.8434;;;;
2019/12/29 08:59:26;;;;;;;17.2;15.2;;;;;;;1.5;65.81934;981.851;;;;
2019/12/29 09:01:51;;;;;;;17.5;14.7;;;;;;;1.17;67.53418;981.8222;;;;
2019/12/29 09:04:17;;;;;;;17.6;14.6;;;;;;;1.3;67.48633;981.8306;;;;
2019/12/29 09:06:42;;;;;;;17.6;14.4;;;;;;;1.79;67.16211;981.9095;;;;
2019/12/29 09:09:07;;;;;;;18.4;15.8;;;;;;;1.79;66.51855;981.9633;;;;
2019/12/29 09:11:32;;;;;;;17.3;15.4;;;;;;;1.55;67.59375;981.9658;;;;
2019/12/29 09:13:57;;;;;;;18.4;15.5;;;;;;;1.91;66.89453;981.9609;;;;
2019/12/29 09:16:22;;;;;;;18.7;15.7;;;;;;;1.59;66.69336;981.9109;;;;
2019/12/29 09:18:48;;;;;;;18;15.5;;;;;;;1.2;67.90527;981.8898;;;;
2019/12/29 09:21:13;;;;;;;16.6;14.9;;;;;;;1.55;68.21484;981.9142;;;;
2019/12/29 09:23:39;;;;;;;19.2;15.8;;;;;;;1.56;68.26074;981.9503;;;;
2019/12/29 09:26:48;;;;;;;18.4;15.9;;;;;;;1.8;67.47363;981.8928;;;;
2019/12/29 09:28:28;;;;;;;17.1;15.2;;;;;;;1.82;66.87891;981.8983;;;;
2019/12/29 09:30:53;;;;;;;18.3;15.7;;;;;;;1.91;66.94043;981.875;;;;
2019/12/29 09:33:18;;;;;;;18.6;15.2;;;;;;;1.9;66.6748;981.9175;;;;
2019/12/29 09:35:43;;;;;;;16.7;14.9;;;;;;;2.01;66.65723;981.9102;;;;
2019/12/29 09:38:08;;;;;;;16.5;14.6;;;;;;;2.2;66.70898;981.8497;;;;
2019/12/29 09:40:33;;;;;;;19.3;14.8;;;;;;;2.19;65.62695;981.7929;;;;
2019/12/29 09:42:58;;;;;;;18.3;13.9;;;;;;;2.01;65.94434;981.7841;;;;
2019/12/29 09:45:24;;;;;;;17.1;14.4;;;;;;;2.04;65.99609;981.7424;;;;
2019/12/29 09:47:49;;;;;;;16.5;14.7;;;;;;;2.01;65.54199;981.6838;;;;
2019/12/29 09:50:14;;;;;;;16.2;13.8;;;;;;;1.7;66.15918;981.7514;;;;
2019/12/29 09:52:39;;;;;;;14.7;13.1;;;;;;;1.79;65.97754;981.7723;;;;
2019/12/29 09:55:04;;;;;;;16.5;13.3;;;;;;;1.7;67.13672;981.7827;;;;
2019/12/29 09:57:29;;;;;;;17.4;14.1;;;;;;;1.88;67.03809;981.7861;;;;
2019/12/29 09:59:54;;;;;;;15.2;13.1;;;;;;;2.02;66.2334;981.8356;;;;
2019/12/29 10:02:19;;;;;;;14.9;13.3;;;;;;;1.86;66.24316;981.8284;;;;
2019/12/29 10:04:44;;;;;;;14.7;12.5;;;;;;;2.18;66.0166;981.7695;;;;
2019/12/29 10:07:09;;;;;;;14.3;12.8;;;;;;;2.36;64.94141;981.7659;;;;
2019/12/29 10:09:34;;;;;;;15.5;12.7;;;;;;;2.05;65.39844;981.8242;;;;
2019/12/29 10:11:59;;;;;;;14.5;12.9;;;;;;;1.97;65.8916;981.7834;;;;
2019/12/29 10:14:24;;;;;;;14.9;12.8;;;;;;;2.08;65.32324;981.7206;;;;
2019/12/29 10:16:50;;;;;;;14.8;12.8;;;;;;;2.3;65.02441;981.7252;;;;
2019/12/29 10:19:15;;;;;;;15.1;13.2;;;;;;;2.27;65.50293;981.6471;;;;
2019/12/29 10:21:40;;;;;;;17.7;12.6;;;;;;;2.24;65.34766;981.6039;;;;
2019/12/29 10:24:05;;;;;;;14.1;12.4;;;;;;;2.31;65.46191;981.5466;;;;
2019/12/29 10:26:30;;;;;;;15.3;12.7;;;;;;;2.3;65.67969;981.5148;;;;
2019/12/29 10:28:55;;;;;;;13.4;12;;;;;;;2.29;65.66602;981.538;;;;
2019/12/29 10:31:20;;;;;;;13.2;11.2;;;;;;;2.32;65.47461;981.4327;;;;
2019/12/29 10:33:45;;;;;;;13.6;11.4;;;;;;;2.3;64.08105;981.4152;;;;
2019/12/29 10:36:10;;;;;;;12;10.7;;;;;;;2.19;65.35156;981.4124;;;;
2019/12/29 10:38:35;;;;;;;12.8;11.3;;;;;;;2.13;64.97559;981.3553;;;;
2019/12/29 10:41:01;;;;;;;14.7;11.8;;;;;;;2;65.87402;981.2969;;;;
2019/12/29 10:43:26;;;;;;;13.1;11.4;;;;;;;2.03;65.44141;981.2553;;;;
2019/12/29 10:45:51;;;;;;;13.2;11.8;;;;;;;1.96;65.74219;981.1889;;;;
2019/12/29 10:48:16;;;;;;;12.8;10.9;;;;;;;1.98;65.15918;981.1526;;;;
2019/12/29 10:50:41;;;;;;;13.5;11.4;;;;;;;1.84;65.37891;981.1105;;;;
2019/12/29 10:53:06;;;;;;;13;11.4;;;;;;;1.96;64.96094;981.0983;;;;
2019/12/29 10:55:31;;;;;;;13.6;12;;;;;;;2.24;65.36035;981.0122;;;;
2019/12/29 10:57:56;;;;;;;13.7;11.6;;;;;;;2.29;65.26367;980.9093;;;;
2019/12/29 11:00:22;;;;;;;13.7;11.9;;;;;;;2.28;65.06543;980.8627;;;;
2019/12/29 11:02:47;;;;;;;13.5;11.8;;;;;;;2.41;65.31641;980.8575;;;;
2019/12/29 11:05:12;;;;;;;14.3;11.8;;;;;;;2.25;65.33789;980.8019;;;;
2019/12/29 11:07:37;;;;;;;13.9;12.1;;;;;;;2.34;65.13281;980.7903;;;;
2019/12/29 11:10:02;;;;;;;13.8;12.1;;;;;;;2.47;64.73926;980.7784;;;;
2019/12/29 11:12:27;;;;;;;14.6;12.1;;;;;;;2.5;64.06543;980.7155;;;;
2019/12/29 11:14:53;;;;;;;14.3;12.2;;;;;;;2.39;65.02637;980.6663;;;;
2019/12/29 11:17:18;;;;;;;14.4;11.9;;;;;;;2.49;65.17969;980.6078;;;;
2019/12/29 11:19:43;;;;;;;16.8;12.7;;;;;;;2.54;65.41797;980.5795;;;;
2019/12/29 11:22:08;;;;;;;14.3;12.7;;;;;;;2.58;65.2041;980.5617;;;;
2019/12/29 11:24:33;;;;;;;14.8;13;;;;;;;2.57;65.13379;980.5748;;;;
2019/12/29 11:26:58;;;;;;;14.9;12.5;;;;;;;2.46;64.56543;980.5679;;;;
2019/12/29 11:29:24;;;;;;;15.3;12.7;;;;;;;2.37;65.44824;980.5164;;;;
2019/12/29 11:31:49;;;;;;;15.5;12.8;;;;;;;2.39;65.03711;980.5;;;;
2019/12/29 11:34:14;;;;;;;14.7;12.4;;;;;;;2.29;65.45996;980.5624;;;;
2019/12/29 11:36:39;;;;;;;12.7;11.4;;;;;;;2.32;65.48828;980.567;;;;
2019/12/29 11:39:05;;;;;;;15.3;12;;;;;;;2.45;65.16211;980.5232;;;;
2019/12/29 11:41:29;;;;;;;18.5;12.7;;;;;;;2.54;65.47559;980.4437;;;;
2019/12/29 11:43:54;;;;;;;15.5;12.6;;;;;;;2.56;64.19043;980.4318;;;;
2019/12/29 11:46:19;;;;;;;14.3;12.2;;;;;;;2.5;64.64063;980.407;;;;
2019/12/29 11:48:44;;;;;;;14.5;11.9;;;;;;;2.54;64.83008;980.4294;;;;
2019/12/29 11:51:10;;;;;;;13.4;11.4;;;;;;;2.73;63.03027;980.449;;;;
2019/12/29 11:53:35;;;;;;;12.7;11.3;;;;;;;2.9;62.6748;980.461;;;;
2019/12/29 11:56:00;;;;;;;13.2;11.5;;;;;;;3.28;62.61719;980.442;;;;
2019/12/29 11:59:07;;;;;;;13.2;11.8;;;;;;;3.56;61.4707;980.4183;;;;
2019/12/29 12:00:50;;;;;;;12.5;11;;;;;;;3.64;59.69336;980.3742;;;;
2019/12/29 12:03:15;;;;;;;13.5;11.2;;;;;;;3.77;59.66699;980.3303;;;;
2019/12/29 12:05:41;;;;;;;12.6;11.1;;;;;;;3.78;58.81445;980.1898;;;;
2019/12/29 12:08:06;;;;;;;13.5;10.6;;;;;;;3.85;59.05371;980.2687;;;;
2019/12/29 12:10:31;;;;;;;12.3;10.4;;;;;;;3.78;58.45703;980.3428;;;;
2019/12/29 12:12:56;;;;;;;14.3;11.3;;;;;;;3.88;59.12793;980.2494;;;;
2019/12/29 12:15:21;;;;;;;11.9;10.6;;;;;;;3.98;59.12988;980.1355;;;;
2019/12/29 12:17:46;;;;;;;12.9;10.9;;;;;;;4.17;58.77539;980.0711;;;;
2019/12/29 12:20:12;;;;;;;12.7;10.9;;;;;;;4.39;57.63867;980.0142;;;;
2019/12/29 12:22:37;;;;;;;13;11.3;;;;;;;4.47;57.64941;979.9792;;;;
2019/12/29 12:25:02;;;;;;;12.4;10.8;;;;;;;4.32;57.75684;979.9628;;;;
2019/12/29 12:27:27;;;;;;;14.3;10.2;;;;;;;3.79;57.66016;979.9395;;;;
2019/12/29 12:29:52;;;;;;;10.7;9.1;;;;;;;3.91;56.76563;979.9109;;;;
2019/12/29 12:32:17;;;;;;;11;9;;;;;;;3.96;56.11328;979.9128;;;;
2019/12/29 12:34:42;;;;;;;10.5;9.4;;;;;;;3.83;56.69824;979.948;;;;
2019/12/29 12:37:07;;;;;;;10.4;9.2;;;;;;;4.15;56.42773;979.9774;;;;
2019/12/29 12:39:33;;;;;;;12;9.7;;;;;;;4.51;55.75781;979.9973;;;;
2019/12/29 12:41:58;;;;;;;10.7;9.6;;;;;;;4.08;57.09961;979.994;;;;
2019/12/29 12:47:11;;;;;;;13.7;9.8;;;;;;;4.37;56.69922;980.0597;;;;
2019/12/29 12:49:36;;;;;;;11.8;9;;;;;;;4.59;56.00098;980.0469;;;;
2019/12/29 12:52:01;;;;;;;12.1;9;;;;;;;4.76;56.2666;980.0137;;;;
2019/12/29 12:54:26;;;;;;;12.9;9.9;;;;;;;4.96;55.86426;980.0389;;;;
2019/12/29 12:56:51;;;;;;;12.1;10.3;;;;;;;4.81;55.93848;979.9767;;;;
2019/12/29 12:59:16;;;;;;;11.1;9.6;;;;;;;4.62;56.1084;979.9821;;;;
2019/12/29 13:01:42;;;;;;;14.3;9.3;;;;;;;4.65;56.41309;979.9984;;;;
2019/12/29 13:04:07;;;;;;;10.5;9.2;;;;;;;4.65;55.70703;979.9767;;;;
2019/12/29 13:06:32;;;;;;;11.5;9.5;;;;;;;4.76;55.94238;979.9161;;;;
2019/12/29 13:08:57;;;;;;;10.4;9.3;;;;;;;4.66;56.41602;979.9306;;;;
2019/12/29 13:11:22;;;;;;;11.2;8.9;;;;;;;4.56;56.12402;979.8347;;;;
2019/12/29 13:13:47;;;;;;;9.5;8.5;;;;;;;4.76;55.04102;979.829;;;;
2019/12/29 13:16:12;;;;;;;10.5;8.6;;;;;;;4.98;54.99902;979.8162;;;;
2019/12/29 13:18:37;;;;;;;11.8;9.3;;;;;;;4.8;55.54395;979.8583;;;;
2019/12/29 13:21:02;;;;;;;12.4;9;;;;;;;5.13;54.94922;979.7411;;;;
2019/12/29 13:23:27;;;;;;;10.1;8.9;;;;;;;5.15;55.15918;979.6995;;;;
2019/12/29 13:25:52;;;;;;;11.3;9.4;;;;;;;4.89;56.14355;979.6522;;;;
2019/12/29 13:28:17;;;;;;;10.8;9;;;;;;;5.14;55.62207;979.7488;;;;
2019/12/29 13:30:43;;;;;;;10.9;9.3;;;;;;;5.25;55.16113;979.7202;;;;
2019/12/29 13:33:08;;;;;;;11.3;9.4;;;;;;;5.33;55.4375;979.7842;;;;
2019/12/29 13:35:33;;;;;;;12.8;9.4;;;;;;;5.4;55.29785;979.8136;;;;
2019/12/29 13:37:58;;;;;;;10.2;9;;;;;;;5.14;55.39063;979.8544;;;;
2019/12/29 13:40:23;;;;;;;9.8;8.8;;;;;;;5.36;55.05859;979.834;;;;
2019/12/29 13:42:48;;;;;;;10.3;8.9;;;;;;;5.6;54.29102;979.7817;;;;
2019/12/29 13:45:13;;;;;;;10.9;9.3;;;;;;;5.52;53.36621;979.8784;;;;
2019/12/29 13:47:38;;;;;;;9.8;8.8;;;;;;;5.54;53.64746;979.8702;;;;
2019/12/29 13:50:03;;;;;;;10.2;8.7;;;;;;;5.62;53.72559;979.8647;;;;
2019/12/29 13:52:28;;;;;;;10.8;9.1;;;;;;;5.31;53.31641;979.9808;;;;
2019/12/29 13:54:53;;;;;;;13;9.2;;;;;;;5.24;54.06152;979.9053;;;;
2019/12/29 13:57:18;;;;;;;13.2;9.7;;;;;;;5.13;56.31543;979.9266;;;;
2019/12/29 13:59:44;;;;;;;11.6;9.6;;;;;;;4.82;55.87988;979.9711;;;;
2019/12/29 14:02:09;;;;;;;11.7;9.9;;;;;;;4.67;55.95313;979.9927;;;;
2019/12/29 14:04:34;;;;;;;10.8;9.1;;;;;;;4.46;56.18066;980.0172;;;;